sensor_id;sensor_type;location;lat;lon;timestamp;pressure;altitude;pressure_sealevel;temperature;humidity
79362;BME280;68830;47.566;19.012;2023-04-26T00:01:52;99254.03;;;10.28;67.24
79362;BME280;68830;47.566;19.012;2023-04-26T00:04:54;99261.16;;;10.28;66.99
79362;BME280;68830;47.566;19.012;2023-04-26T00:07:57;99256.53;;;10.30;67.43
79362;BME280;68830;47.566;19.012;2023-04-26T00:11:00;99253.53;;;10.33;66.49
79362;BME280;68830;47.566;19.012;2023-04-26T00:14:01;99257.00;;;10.33;66.82
79362;BME280;68830;47.566;19.012;2023-04-26T00:17:05;99257.50;;;10.29;66.43
79362;BME280;68830;47.566;19.012;2023-04-26T00:20:10;99251.88;;;10.40;66.09
79362;BME280;68830;47.566;19.012;2023-04-26T00:23:13;99264.47;;;10.62;65.49
79362;BME280;68830;47.566;19.012;2023-04-26T00:26:15;99267.63;;;10.74;64.88
79362;BME280;68830;47.566;19.012;2023-04-26T00:29:17;99265.13;;;10.72;64.31
79362;BME280;68830;47.566;19.012;2023-04-26T00:32:20;99275.53;;;10.82;65.35
79362;BME280;68830;47.566;19.012;2023-04-26T00:35:22;99272.22;;;10.72;64.93
79362;BME280;68830;47.566;19.012;2023-04-26T00:38:24;99287.97;;;10.82;64.71
79362;BME280;68830;47.566;19.012;2023-04-26T00:41:29;99273.91;;;10.73;64.05
79362;BME280;68830;47.566;19.012;2023-04-26T00:44:32;99261.66;;;10.64;64.50
79362;BME280;68830;47.566;19.012;2023-04-26T00:47:35;99255.69;;;10.54;64.72
79362;BME280;68830;47.566;19.012;2023-04-26T00:50:37;99283.66;;;10.64;64.62
79362;BME280;68830;47.566;19.012;2023-04-26T00:53:40;99231.22;;;10.27;64.06
79362;BME280;68830;47.566;19.012;2023-04-26T00:56:42;99299.06;;;10.61;64.88
79362;BME280;68830;47.566;19.012;2023-04-26T00:59:44;99309.28;;;10.56;65.06
79362;BME280;68830;47.566;19.012;2023-04-26T01:02:47;99227.81;;;10.09;64.92
79362;BME280;68830;47.566;19.012;2023-04-26T01:05:49;99243.53;;;10.10;64.56
79362;BME280;68830;47.566;19.012;2023-04-26T01:08:52;99263.75;;;10.19;64.85
79362;BME280;68830;47.566;19.012;2023-04-26T01:11:55;99253.94;;;10.04;65.50
79362;BME280;68830;47.566;19.012;2023-04-26T01:14:59;99315.06;;;10.35;66.23
79362;BME280;68830;47.566;19.012;2023-04-26T01:18:03;99321.19;;;10.35;64.92
79362;BME280;68830;47.566;19.012;2023-04-26T01:21:05;99290.66;;;10.07;65.63
79362;BME280;68830;47.566;19.012;2023-04-26T01:24:10;99300.06;;;10.01;66.02
79362;BME280;68830;47.566;19.012;2023-04-26T01:27:12;99338.53;;;10.22;65.67
79362;BME280;68830;47.566;19.012;2023-04-26T01:30:14;99309.66;;;10.02;65.60
79362;BME280;68830;47.566;19.012;2023-04-26T01:33:17;99334.69;;;10.16;66.06
79362;BME280;68830;47.566;19.012;2023-04-26T01:36:19;99333.34;;;10.20;65.14
79362;BME280;68830;47.566;19.012;2023-04-26T01:39:22;99331.22;;;10.15;65.17
79362;BME280;68830;47.566;19.012;2023-04-26T01:42:24;99336.84;;;10.21;64.28
79362;BME280;68830;47.566;19.012;2023-04-26T01:45:26;99329.88;;;10.19;64.39
79362;BME280;68830;47.566;19.012;2023-04-26T01:48:28;99336.84;;;10.21;64.14
79362;BME280;68830;47.566;19.012;2023-04-26T01:51:30;99344.78;;;10.21;64.03
79362;BME280;68830;47.566;19.012;2023-04-26T01:54:34;99349.41;;;10.18;63.65
79362;BME280;68830;47.566;19.012;2023-04-26T01:57:36;99346.91;;;10.17;63.98
79362;BME280;68830;47.566;19.012;2023-04-26T02:00:40;99345.06;;;10.09;63.55
79362;BME280;68830;47.566;19.012;2023-04-26T02:03:42;99347.88;;;10.08;64.02
79362;BME280;68830;47.566;19.012;2023-04-26T02:06:44;99345.03;;;10.01;63.54
79362;BME280;68830;47.566;19.012;2023-04-26T02:09:48;99342.06;;;10.04;63.50
79362;BME280;68830;47.566;19.012;2023-04-26T02:12:50;99321.66;;;9.80;63.55
79362;BME280;68830;47.566;19.012;2023-04-26T02:15:52;99351.31;;;10.00;63.39
79362;BME280;68830;47.566;19.012;2023-04-26T02:18:54;99366.22;;;10.01;63.07
79362;BME280;68830;47.566;19.012;2023-04-26T02:21:56;99352.28;;;9.91;63.68
79362;BME280;68830;47.566;19.012;2023-04-26T02:25:00;99366.16;;;9.93;63.40
79362;BME280;68830;47.566;19.012;2023-04-26T02:28:02;99369.28;;;9.88;63.55
79362;BME280;68830;47.566;19.012;2023-04-26T02:31:04;99334.28;;;9.61;64.24
79362;BME280;68830;47.566;19.012;2023-04-26T02:34:07;99373.03;;;9.78;63.58
79362;BME280;68830;47.566;19.012;2023-04-26T02:37:09;99355.16;;;9.72;63.88
79362;BME280;68830;47.566;19.012;2023-04-26T02:40:12;99371.59;;;9.83;63.16
79362;BME280;68830;47.566;19.012;2023-04-26T02:43:14;99357.16;;;9.78;62.76
79362;BME280;68830;47.566;19.012;2023-04-26T02:46:16;99370.44;;;9.86;62.57
79362;BME280;68830;47.566;19.012;2023-04-26T02:49:18;99372.25;;;9.85;61.95
79362;BME280;68830;47.566;19.012;2023-04-26T02:52:20;99379.69;;;9.82;62.40
79362;BME280;68830;47.566;19.012;2023-04-26T02:55:24;99382.09;;;9.75;62.75
79362;BME280;68830;47.566;19.012;2023-04-26T02:58:26;99384.09;;;9.73;62.58
79362;BME280;68830;47.566;19.012;2023-04-26T03:01:28;99382.09;;;9.67;62.68
79362;BME280;68830;47.566;19.012;2023-04-26T03:04:31;99377.25;;;9.63;62.39
79362;BME280;68830;47.566;19.012;2023-04-26T03:07:34;99369.22;;;9.46;63.29
79362;BME280;68830;47.566;19.012;2023-04-26T03:10:37;99379.84;;;9.54;62.99
79362;BME280;68830;47.566;19.012;2023-04-26T03:13:39;99385.47;;;9.51;62.96
79362;BME280;68830;47.566;19.012;2023-04-26T03:16:41;99386.47;;;9.58;62.16
79362;BME280;68830;47.566;19.012;2023-04-26T03:19:44;99389.94;;;9.59;62.54
79362;BME280;68830;47.566;19.012;2023-04-26T03:22:45;99335.16;;;9.35;62.00
79362;BME280;68830;47.566;19.012;2023-04-26T03:25:49;99393.66;;;9.66;62.09
79362;BME280;68830;47.566;19.012;2023-04-26T03:28:51;99403.53;;;9.64;62.30
79362;BME280;68830;47.566;19.012;2023-04-26T03:31:53;99403.84;;;9.61;62.43
79362;BME280;68830;47.566;19.012;2023-04-26T03:34:56;99419.84;;;9.59;62.18
79362;BME280;68830;47.566;19.012;2023-04-26T03:37:58;99421.66;;;9.59;62.34
79362;BME280;68830;47.566;19.012;2023-04-26T03:41:01;99421.50;;;9.61;61.55
79362;BME280;68830;47.566;19.012;2023-04-26T03:44:03;99352.16;;;9.15;62.07
79362;BME280;68830;47.566;19.012;2023-04-26T03:47:05;99390.88;;;9.24;61.94
79362;BME280;68830;47.566;19.012;2023-04-26T03:50:08;99440.50;;;9.56;61.24
79362;BME280;68830;47.566;19.012;2023-04-26T03:53:10;99419.50;;;9.54;60.59
79362;BME280;68830;47.566;19.012;2023-04-26T03:56:14;99430.75;;;9.56;60.71
79362;BME280;68830;47.566;19.012;2023-04-26T03:59:16;99384.53;;;9.35;60.32
79362;BME280;68830;47.566;19.012;2023-04-26T04:02:18;99403.91;;;9.43;60.20
79362;BME280;68830;47.566;19.012;2023-04-26T04:05:20;99387.25;;;9.25;59.97
79362;BME280;68830;47.566;19.012;2023-04-26T04:08:22;99428.25;;;9.55;59.98
79362;BME280;68830;47.566;19.012;2023-04-26T04:11:26;99460.75;;;9.73;60.37
79362;BME280;68830;47.566;19.012;2023-04-26T04:14:28;99459.94;;;9.73;59.78
79362;BME280;68830;47.566;19.012;2023-04-26T04:17:30;99432.16;;;9.69;60.27
79362;BME280;68830;47.566;19.012;2023-04-26T04:20:32;99444.00;;;9.65;60.47
79362;BME280;68830;47.566;19.012;2023-04-26T04:23:37;99474.97;;;9.72;60.79
79362;BME280;68830;47.566;19.012;2023-04-26T04:26:40;99472.00;;;9.75;60.20
79362;BME280;68830;47.566;19.012;2023-04-26T04:29:48;99434.97;;;9.49;60.63
79362;BME280;68830;47.566;19.012;2023-04-26T04:32:54;99434.53;;;9.54;60.34
79362;BME280;68830;47.566;19.012;2023-04-26T04:35:59;99439.00;;;9.53;60.52
79362;BME280;68830;47.566;19.012;2023-04-26T04:39:01;99428.81;;;9.41;61.64
79362;BME280;68830;47.566;19.012;2023-04-26T04:42:06;99426.19;;;9.41;60.99
79362;BME280;68830;47.566;19.012;2023-04-26T04:45:09;99476.63;;;9.73;61.58
79362;BME280;68830;47.566;19.012;2023-04-26T04:48:11;99435.91;;;9.40;61.92
79362;BME280;68830;47.566;19.012;2023-04-26T04:51:13;99510.91;;;9.83;62.59
79362;BME280;68830;47.566;19.012;2023-04-26T04:54:17;99469.72;;;9.54;62.72
79362;BME280;68830;47.566;19.012;2023-04-26T04:57:20;99484.13;;;9.60;63.04
79362;BME280;68830;47.566;19.012;2023-04-26T05:00:22;99467.31;;;9.43;62.87
79362;BME280;68830;47.566;19.012;2023-04-26T05:03:24;99458.91;;;9.48;62.87
79362;BME280;68830;47.566;19.012;2023-04-26T05:06:27;99506.84;;;9.71;62.86
79362;BME280;68830;47.566;19.012;2023-04-26T05:09:29;99532.50;;;9.96;62.23
79362;BME280;68830;47.566;19.012;2023-04-26T05:12:32;99532.84;;;10.01;61.67
79362;BME280;68830;47.566;19.012;2023-04-26T05:15:35;99496.22;;;9.88;61.41
79362;BME280;68830;47.566;19.012;2023-04-26T05:18:38;99517.97;;;10.00;60.72
79362;BME280;68830;47.566;19.012;2023-04-26T05:21:39;99537.25;;;10.18;60.37
79362;BME280;68830;47.566;19.012;2023-04-26T05:24:41;99549.88;;;10.25;59.99
79362;BME280;68830;47.566;19.012;2023-04-26T05:27:45;99552.53;;;10.25;59.34
79362;BME280;68830;47.566;19.012;2023-04-26T05:30:46;99530.13;;;10.11;59.30
79362;BME280;68830;47.566;19.012;2023-04-26T05:33:49;99525.19;;;10.16;58.93
79362;BME280;68830;47.566;19.012;2023-04-26T05:36:51;99553.94;;;10.37;58.30
79362;BME280;68830;47.566;19.012;2023-04-26T05:39:53;99556.66;;;10.45;57.83
79362;BME280;68830;47.566;19.012;2023-04-26T05:42:56;99560.31;;;10.52;56.63
79362;BME280;68830;47.566;19.012;2023-04-26T05:45:58;99554.19;;;10.52;56.90
79362;BME280;68830;47.566;19.012;2023-04-26T05:49:02;99559.81;;;10.57;57.83
79362;BME280;68830;47.566;19.012;2023-04-26T05:52:04;99548.63;;;10.71;57.29
79362;BME280;68830;47.566;19.012;2023-04-26T05:55:06;99557.56;;;10.70;56.58
79362;BME280;68830;47.566;19.012;2023-04-26T05:58:10;99538.03;;;10.63;56.16
79362;BME280;68830;47.566;19.012;2023-04-26T06:01:12;99555.63;;;10.80;55.52
79362;BME280;68830;47.566;19.012;2023-04-26T06:04:15;99498.94;;;8.99;60.69
79362;BME280;68830;47.566;19.012;2023-04-26T06:07:17;99507.41;;;9.03;61.81
79362;BME280;68830;47.566;19.012;2023-04-26T06:10:22;99501.38;;;8.93;61.46
79362;BME280;68830;47.566;19.012;2023-04-26T06:13:25;99521.31;;;9.05;60.22
79362;BME280;68830;47.566;19.012;2023-04-26T06:16:27;99526.69;;;8.86;60.35
79362;BME280;68830;47.566;19.012;2023-04-26T06:19:29;99511.03;;;9.02;59.83
79362;BME280;68830;47.566;19.012;2023-04-26T06:22:31;99506.72;;;9.19;59.21
79362;BME280;68830;47.566;19.012;2023-04-26T06:25:32;99508.94;;;9.23;58.70
79362;BME280;68830;47.566;19.012;2023-04-26T06:28:36;99522.38;;;9.30;58.94
79362;BME280;68830;47.566;19.012;2023-04-26T06:31:38;99584.72;;;9.76;57.18
79362;BME280;68830;47.566;19.012;2023-04-26T06:34:40;99579.75;;;10.35;54.14
79362;BME280;68830;47.566;19.012;2023-04-26T06:37:44;99577.16;;;10.85;53.12
79362;BME280;68830;47.566;19.012;2023-04-26T06:40:46;99587.91;;;11.26;50.99
79362;BME280;68830;47.566;19.012;2023-04-26T06:43:49;99572.91;;;11.51;51.70
79362;BME280;68830;47.566;19.012;2023-04-26T06:46:53;99528.94;;;11.32;49.88
79362;BME280;68830;47.566;19.012;2023-04-26T06:49:55;99582.06;;;11.81;49.43
79362;BME280;68830;47.566;19.012;2023-04-26T06:52:57;99587.38;;;11.97;47.82
79362;BME280;68830;47.566;19.012;2023-04-26T06:55:59;99588.66;;;12.09;48.32
79362;BME280;68830;47.566;19.012;2023-04-26T06:59:05;99593.13;;;12.25;47.00
79362;BME280;68830;47.566;19.012;2023-04-26T07:02:07;99554.16;;;11.77;46.24
79362;BME280;68830;47.566;19.012;2023-04-26T07:05:09;99567.66;;;11.17;47.79
79362;BME280;68830;47.566;19.012;2023-04-26T07:08:12;99556.03;;;10.93;46.67
79362;BME280;68830;47.566;19.012;2023-04-26T07:11:13;99564.63;;;10.95;48.45
79362;BME280;68830;47.566;19.012;2023-04-26T07:14:17;99540.75;;;10.87;46.69
79362;BME280;68830;47.566;19.012;2023-04-26T07:17:19;99534.56;;;10.62;46.53
79362;BME280;68830;47.566;19.012;2023-04-26T07:20:22;99552.38;;;10.94;46.05
79362;BME280;68830;47.566;19.012;2023-04-26T07:23:24;99553.28;;;11.19;46.97
79362;BME280;68830;47.566;19.012;2023-04-26T07:26:26;99557.84;;;11.01;45.20
79362;BME280;68830;47.566;19.012;2023-04-26T07:29:30;99561.44;;;11.42;46.95
79362;BME280;68830;47.566;19.012;2023-04-26T07:32:32;99568.19;;;11.20;43.36
79362;BME280;68830;47.566;19.012;2023-04-26T07:35:34;99567.38;;;11.28;44.06
79362;BME280;68830;47.566;19.012;2023-04-26T07:38:36;99586.50;;;11.72;44.71
79362;BME280;68830;47.566;19.012;2023-04-26T07:41:38;99592.94;;;11.53;45.71
79362;BME280;68830;47.566;19.012;2023-04-26T07:44:46;99584.63;;;11.40;43.23
79362;BME280;68830;47.566;19.012;2023-04-26T07:47:48;99599.59;;;11.65;43.38
79362;BME280;68830;47.566;19.012;2023-04-26T07:50:50;99608.16;;;11.43;44.13
79362;BME280;68830;47.566;19.012;2023-04-26T07:53:52;99589.59;;;11.43;45.27
79362;BME280;68830;47.566;19.012;2023-04-26T07:56:56;99615.16;;;11.52;44.53
79362;BME280;68830;47.566;19.012;2023-04-26T07:59:59;99608.38;;;11.58;43.46
79362;BME280;68830;47.566;19.012;2023-04-26T08:03:01;99605.06;;;11.72;44.04
79362;BME280;68830;47.566;19.012;2023-04-26T08:06:04;99613.50;;;11.51;43.65
79362;BME280;68830;47.566;19.012;2023-04-26T08:09:06;99613.50;;;11.59;42.74
79362;BME280;68830;47.566;19.012;2023-04-26T08:12:09;99609.22;;;11.66;42.43
79362;BME280;68830;47.566;19.012;2023-04-26T08:15:13;99620.44;;;11.36;43.75
79362;BME280;68830;47.566;19.012;2023-04-26T08:18:15;99635.84;;;10.98;43.60
79362;BME280;68830;47.566;19.012;2023-04-26T08:21:17;99630.00;;;11.21;42.17
79362;BME280;68830;47.566;19.012;2023-04-26T08:24:18;99621.63;;;11.50;42.31
79362;BME280;68830;47.566;19.012;2023-04-26T08:27:21;99608.38;;;11.58;41.16
79362;BME280;68830;47.566;19.012;2023-04-26T08:30:24;99632.13;;;12.24;41.20
79362;BME280;68830;47.566;19.012;2023-04-26T08:33:26;99596.16;;;11.89;41.33
79362;BME280;68830;47.566;19.012;2023-04-26T08:36:28;99593.63;;;11.72;41.40
79362;BME280;68830;47.566;19.012;2023-04-26T08:39:30;99609.88;;;11.68;39.10
79362;BME280;68830;47.566;19.012;2023-04-26T08:42:38;99600.25;;;11.59;39.25
79362;BME280;68830;47.566;19.012;2023-04-26T08:45:43;99613.22;;;11.87;40.13
79362;BME280;68830;47.566;19.012;2023-04-26T08:48:52;99593.19;;;11.84;38.37
79362;BME280;68830;47.566;19.012;2023-04-26T08:51:56;99657.84;;;12.56;39.34
79362;BME280;68830;47.566;19.012;2023-04-26T08:54:59;99578.75;;;11.95;39.43
79362;BME280;68830;47.566;19.012;2023-04-26T08:58:02;99585.72;;;12.12;39.04
79362;BME280;68830;47.566;19.012;2023-04-26T09:01:07;99600.81;;;12.12;39.19
79362;BME280;68830;47.566;19.012;2023-04-26T09:04:10;99621.88;;;11.97;39.55
79362;BME280;68830;47.566;19.012;2023-04-26T09:07:19;99590.00;;;12.30;39.01
79362;BME280;68830;47.566;19.012;2023-04-26T09:10:21;99597.78;;;12.31;38.00
79362;BME280;68830;47.566;19.012;2023-04-26T09:13:27;99645.06;;;12.60;38.56
79362;BME280;68830;47.566;19.012;2023-04-26T09:16:37;99639.38;;;12.71;39.93
79362;BME280;68830;47.566;19.012;2023-04-26T09:19:40;99656.91;;;12.97;38.40
79362;BME280;68830;47.566;19.012;2023-04-26T09:22:45;99649.88;;;13.20;38.28
79362;BME280;68830;47.566;19.012;2023-04-26T09:25:47;99648.41;;;13.01;37.49
79362;BME280;68830;47.566;19.012;2023-04-26T09:28:49;99617.75;;;12.82;37.58
79362;BME280;68830;47.566;19.012;2023-04-26T09:32:12;99651.75;;;12.95;38.25
79362;BME280;68830;47.566;19.012;2023-04-26T09:35:21;99648.84;;;12.66;41.18
79362;BME280;68830;47.566;19.012;2023-04-26T09:38:23;99640.94;;;12.01;40.22
79362;BME280;68830;47.566;19.012;2023-04-26T09:41:41;99625.66;;;12.43;39.11
79362;BME280;68830;47.566;19.012;2023-04-26T09:44:43;99664.97;;;12.64;38.58
79362;BME280;68830;47.566;19.012;2023-04-26T09:47:51;99656.81;;;12.74;39.30
79362;BME280;68830;47.566;19.012;2023-04-26T09:50:54;99625.97;;;12.56;38.17
79362;BME280;68830;47.566;19.012;2023-04-26T09:53:57;99652.88;;;12.45;37.52
79362;BME280;68830;47.566;19.012;2023-04-26T09:56:59;99645.19;;;12.75;39.84
79362;BME280;68830;47.566;19.012;2023-04-26T10:00:06;99647.03;;;12.50;38.60
79362;BME280;68830;47.566;19.012;2023-04-26T10:03:13;99647.03;;;13.22;39.12
79362;BME280;68830;47.566;19.012;2023-04-26T10:06:16;99638.34;;;12.80;37.42
79362;BME280;68830;47.566;19.012;2023-04-26T10:09:18;99586.03;;;12.09;38.20
79362;BME280;68830;47.566;19.012;2023-04-26T10:12:20;99589.19;;;11.88;36.39
79362;BME280;68830;47.566;19.012;2023-04-26T10:15:22;99642.03;;;12.71;37.56
79362;BME280;68830;47.566;19.012;2023-04-26T10:18:26;99645.22;;;12.59;37.64
79362;BME280;68830;47.566;19.012;2023-04-26T10:21:30;99623.28;;;12.65;38.68
79362;BME280;68830;47.566;19.012;2023-04-26T10:24:36;99636.03;;;12.69;36.27
79362;BME280;68830;47.566;19.012;2023-04-26T10:27:50;99609.69;;;12.60;35.95
79362;BME280;68830;47.566;19.012;2023-04-26T10:30:54;99582.13;;;12.52;34.35
79362;BME280;68830;47.566;19.012;2023-04-26T10:34:20;99640.34;;;13.34;34.71
79362;BME280;68830;47.566;19.012;2023-04-26T10:37:22;99634.69;;;13.37;35.91
79362;BME280;68830;47.566;19.012;2023-04-26T10:40:25;99639.09;;;13.44;35.94
79362;BME280;68830;47.566;19.012;2023-04-26T10:43:28;99637.00;;;13.32;36.56
79362;BME280;68830;47.566;19.012;2023-04-26T10:46:38;99635.78;;;13.03;34.81
79362;BME280;68830;47.566;19.012;2023-04-26T10:49:45;99644.72;;;12.55;37.14
79362;BME280;68830;47.566;19.012;2023-04-26T10:53:05;99655.34;;;12.55;37.40
79362;BME280;68830;47.566;19.012;2023-04-26T10:56:06;99666.28;;;12.76;39.14
79362;BME280;68830;47.566;19.012;2023-04-26T10:59:09;99656.50;;;12.61;36.31
79362;BME280;68830;47.566;19.012;2023-04-26T11:02:14;99657.59;;;12.82;36.92
79362;BME280;68830;47.566;19.012;2023-04-26T11:08:58;99641.13;;;13.96;36.02
79362;BME280;68830;47.566;19.012;2023-04-26T11:12:00;99646.50;;;13.65;35.83
79362;BME280;68830;47.566;19.012;2023-04-26T11:15:05;99648.00;;;13.29;35.57
79362;BME280;68830;47.566;19.012;2023-04-26T11:18:07;99640.41;;;13.18;37.10
79362;BME280;68830;47.566;19.012;2023-04-26T11:21:10;99642.38;;;13.24;37.02
79362;BME280;68830;47.566;19.012;2023-04-26T11:24:25;99640.59;;;13.00;36.46
79362;BME280;68830;47.566;19.012;2023-04-26T11:27:27;99639.19;;;12.81;36.12
79362;BME280;68830;47.566;19.012;2023-04-26T11:30:30;99656.72;;;13.06;37.66
79362;BME280;68830;47.566;19.012;2023-04-26T11:33:32;99655.06;;;13.05;36.96
79362;BME280;68830;47.566;19.012;2023-04-26T11:36:37;99638.41;;;13.11;36.22
79362;BME280;68830;47.566;19.012;2023-04-26T11:39:40;99657.56;;;13.46;37.40
79362;BME280;68830;47.566;19.012;2023-04-26T11:42:46;99657.44;;;14.16;34.60
79362;BME280;68830;47.566;19.012;2023-04-26T11:45:48;99657.53;;;14.46;34.17
79362;BME280;68830;47.566;19.012;2023-04-26T11:48:50;99655.56;;;13.79;34.91
79362;BME280;68830;47.566;19.012;2023-04-26T11:51:53;99654.53;;;13.80;35.60
79362;BME280;68830;47.566;19.012;2023-04-26T11:55:03;99659.50;;;13.21;35.38
79362;BME280;68830;47.566;19.012;2023-04-26T11:58:11;99661.56;;;13.03;35.76
79362;BME280;68830;47.566;19.012;2023-04-26T12:01:19;99667.88;;;12.85;36.07
79362;BME280;68830;47.566;19.012;2023-04-26T12:04:26;99644.25;;;13.46;34.57
79362;BME280;68830;47.566;19.012;2023-04-26T12:07:34;99640.56;;;13.55;34.88
79362;BME280;68830;47.566;19.012;2023-04-26T12:10:40;99660.09;;;13.70;35.05
79362;BME280;68830;47.566;19.012;2023-04-26T12:13:42;99645.91;;;13.47;36.06
79362;BME280;68830;47.566;19.012;2023-04-26T12:16:45;99662.75;;;12.92;35.78
79362;BME280;68830;47.566;19.012;2023-04-26T12:19:48;99660.31;;;12.74;36.70
79362;BME280;68830;47.566;19.012;2023-04-26T12:23:03;99656.78;;;12.82;37.38
79362;BME280;68830;47.566;19.012;2023-04-26T12:26:07;99674.16;;;13.09;36.77
79362;BME280;68830;47.566;19.012;2023-04-26T12:29:12;99668.53;;;13.04;34.62
79362;BME280;68830;47.566;19.012;2023-04-26T12:32:14;99650.56;;;13.45;34.58
79362;BME280;68830;47.566;19.012;2023-04-26T12:35:17;99635.84;;;13.88;32.46
79362;BME280;68830;47.566;19.012;2023-04-26T12:38:19;99670.34;;;13.82;33.17
79362;BME280;68830;47.566;19.012;2023-04-26T12:41:22;99657.59;;;13.92;35.64
79362;BME280;68830;47.566;19.012;2023-04-26T12:44:25;99615.69;;;13.01;37.04
79362;BME280;68830;47.566;19.012;2023-04-26T12:47:27;99626.25;;;12.78;36.61
79362;BME280;68830;47.566;19.012;2023-04-26T12:50:29;99599.25;;;12.58;36.40
79362;BME280;68830;47.566;19.012;2023-04-26T12:53:31;99646.03;;;12.51;37.07
79362;BME280;68830;47.566;19.012;2023-04-26T12:56:35;99687.09;;;13.20;35.91
79362;BME280;68830;47.566;19.012;2023-04-26T12:59:44;99631.38;;;12.88;35.35
79362;BME280;68830;47.566;19.012;2023-04-26T13:02:46;99645.91;;;13.08;35.19
79362;BME280;68830;47.566;19.012;2023-04-26T13:05:48;99619.63;;;12.74;34.87
79362;BME280;68830;47.566;19.012;2023-04-26T13:08:50;99652.22;;;12.43;33.80
79362;BME280;68830;47.566;19.012;2023-04-26T13:11:53;99660.09;;;12.92;35.46
79362;BME280;68830;47.566;19.012;2023-04-26T13:14:55;99636.09;;;12.53;35.79
79362;BME280;68830;47.566;19.012;2023-04-26T13:17:57;99646.06;;;12.43;34.63
79362;BME280;68830;47.566;19.012;2023-04-26T13:20:59;99685.91;;;12.59;34.04
79362;BME280;68830;47.566;19.012;2023-04-26T13:24:01;99669.63;;;12.62;34.80
79362;BME280;68830;47.566;19.012;2023-04-26T13:27:04;99688.94;;;13.20;35.28
79362;BME280;68830;47.566;19.012;2023-04-26T13:30:07;99691.09;;;13.00;34.58
79362;BME280;68830;47.566;19.012;2023-04-26T13:33:10;99692.88;;;13.15;34.05
79362;BME280;68830;47.566;19.012;2023-04-26T13:36:12;99703.59;;;12.91;34.04
79362;BME280;68830;47.566;19.012;2023-04-26T13:39:15;99693.03;;;12.59;36.54
79362;BME280;68830;47.566;19.012;2023-04-26T13:42:19;99712.47;;;12.35;35.35
79362;BME280;68830;47.566;19.012;2023-04-26T13:45:21;99705.31;;;12.19;37.11
79362;BME280;68830;47.566;19.012;2023-04-26T13:48:23;99724.41;;;12.31;37.46
79362;BME280;68830;47.566;19.012;2023-04-26T13:51:25;99692.03;;;12.03;37.88
79362;BME280;68830;47.566;19.012;2023-04-26T13:54:27;99675.59;;;11.91;35.01
79362;BME280;68830;47.566;19.012;2023-04-26T13:57:31;99663.50;;;12.21;35.36
79362;BME280;68830;47.566;19.012;2023-04-26T14:00:33;99653.91;;;12.12;34.90
79362;BME280;68830;47.566;19.012;2023-04-26T14:03:34;99671.97;;;12.41;35.90
79362;BME280;68830;47.566;19.012;2023-04-26T14:06:37;99680.63;;;13.06;34.74
79362;BME280;68830;47.566;19.012;2023-04-26T14:09:39;99682.47;;;12.98;35.09
79362;BME280;68830;47.566;19.012;2023-04-26T14:12:42;99715.13;;;12.59;35.20
79362;BME280;68830;47.566;19.012;2023-04-26T14:15:46;99717.25;;;12.39;34.79
79362;BME280;68830;47.566;19.012;2023-04-26T14:18:48;99716.78;;;12.36;34.68
79362;BME280;68830;47.566;19.012;2023-04-26T14:21:49;99727.41;;;12.44;35.55
79362;BME280;68830;47.566;19.012;2023-04-26T14:24:51;99716.25;;;12.40;34.62
79362;BME280;68830;47.566;19.012;2023-04-26T14:27:55;99700.00;;;12.51;35.33
79362;BME280;68830;47.566;19.012;2023-04-26T14:30:57;99720.41;;;12.67;34.32
79362;BME280;68830;47.566;19.012;2023-04-26T14:33:59;99723.22;;;12.66;35.32
79362;BME280;68830;47.566;19.012;2023-04-26T14:37:01;99667.47;;;12.01;35.38
79362;BME280;68830;47.566;19.012;2023-04-26T14:40:05;99730.19;;;12.18;37.23
79362;BME280;68830;47.566;19.012;2023-04-26T14:43:10;99732.69;;;12.11;38.30
79362;BME280;68830;47.566;19.012;2023-04-26T14:46:12;99722.56;;;12.39;38.53
79362;BME280;68830;47.566;19.012;2023-04-26T14:49:14;99733.34;;;12.86;36.11
79362;BME280;68830;47.566;19.012;2023-04-26T14:52:16;99726.84;;;13.05;35.53
79362;BME280;68830;47.566;19.012;2023-04-26T14:55:18;99710.06;;;12.97;35.24
79362;BME280;68830;47.566;19.012;2023-04-26T14:58:22;99739.28;;;13.21;32.77
79362;BME280;68830;47.566;19.012;2023-04-26T15:01:24;99744.13;;;12.93;34.62
79362;BME280;68830;47.566;19.012;2023-04-26T15:04:26;99739.03;;;12.59;35.88
79362;BME280;68830;47.566;19.012;2023-04-26T15:07:28;99739.34;;;12.48;36.16
79362;BME280;68830;47.566;19.012;2023-04-26T15:10:33;99745.63;;;12.39;36.75
79362;BME280;68830;47.566;19.012;2023-04-26T15:13:37;99762.22;;;12.24;37.34
79362;BME280;68830;47.566;19.012;2023-04-26T15:16:39;99703.94;;;11.90;38.08
79362;BME280;68830;47.566;19.012;2023-04-26T15:19:41;99714.16;;;11.69;38.07
79362;BME280;68830;47.566;19.012;2023-04-26T15:22:43;99708.13;;;11.51;38.75
79362;BME280;68830;47.566;19.012;2023-04-26T15:25:45;99724.34;;;11.48;38.85
79362;BME280;68830;47.566;19.012;2023-04-26T15:28:49;99761.19;;;11.51;37.81
79362;BME280;68830;47.566;19.012;2023-04-26T15:31:51;99739.16;;;11.58;38.02
79362;BME280;68830;47.566;19.012;2023-04-26T15:34:53;99755.22;;;12.07;36.77
79362;BME280;68830;47.566;19.012;2023-04-26T15:37:55;99751.13;;;12.37;35.97
79362;BME280;68830;47.566;19.012;2023-04-26T15:40:57;99746.97;;;12.18;35.48
79362;BME280;68830;47.566;19.012;2023-04-26T15:44:00;99748.59;;;12.03;36.71
79362;BME280;68830;47.566;19.012;2023-04-26T15:47:03;99755.06;;;12.09;36.62
79362;BME280;68830;47.566;19.012;2023-04-26T15:50:06;99734.13;;;11.89;34.94
79362;BME280;68830;47.566;19.012;2023-04-26T15:53:08;99712.16;;;11.71;34.93
79362;BME280;68830;47.566;19.012;2023-04-26T15:56:13;99753.03;;;11.94;33.74
79362;BME280;68830;47.566;19.012;2023-04-26T15:59:17;99745.28;;;12.01;33.99
79362;BME280;68830;47.566;19.012;2023-04-26T16:02:19;99760.91;;;12.12;34.97
79362;BME280;68830;47.566;19.012;2023-04-26T16:05:21;99761.91;;;12.11;34.57